Portada
METAR-TAF:

METAR-TAF

Aeropuertos :

El Hierro, España

Aeropuerto de El Hierro

latitud: 27-49N, longitud: 017-53W, altitud: 32 m

Observación

El informe se hizo hace 30 minutos, a las 05:00 UTC
Viento 14 kt del norte, variando entre norte-noroeste y noreste
Temperatura 21°C
Humedad 73%
Presión 1019 hPa
Visibilidad 10 km o más
Cielo nuboso a una altura de 2500 ft

METAR: GCHI 290500Z AUTO 36014KT 330V040 9999 BKN025 21/16 Q1019

Hora: 05:30 (05:30 UTC)

Pronóstico

El informe se hizo hace 3 horas y 30 minutos, a las 02:00 UTC
Pronóstico válido del 29 a las 03 UTC al 30 a las 03 UTC
Viento 14 kt del norte-noreste
Visibilidad 10 km o más
Nubes dispersas a una altura de 2000 ft

TAF: GCHI 290200Z 2903/3003 02014KT 9999 SCT020 TX23/2913Z TN19/2906Z

Observaciones y pronósticos meteorológicos de más de 4000 aeropuertos (mensajes METAR y TAF).

Los puntos amarillos y rojos representan las estaciones disponibles.

Ponga el ratón en el punto deseado para ver el nombre de la estación.

Haga clic para ver las observaciones y los pronósticos meteorológicos.

Para cambiar el mapa : haga clic en los botones verdes con una cruz de color negro para hacer un zoom, en el botón verde con un guión para alejar o en las flechas verdes para mapas adyacentes.


METAR-TAF: